createdAt,value
2022-12-23T00:00:11.700Z,24.55
2022-12-23T00:02:38.823Z,20.83
2022-12-23T00:05:06.620Z,23.80
2022-12-23T00:07:33.373Z,23.25
2022-12-23T00:10:00.568Z,24.10
2022-12-23T00:12:45.813Z,23.70
2022-12-23T00:15:13.245Z,24.48
2022-12-23T00:17:44.746Z,26.50
2022-12-23T00:20:14.041Z,27.02
2022-12-23T00:23:00.199Z,29.20
2022-12-23T00:25:42.203Z,31.17
2022-12-23T00:28:21.937Z,29.25
2022-12-23T00:30:53.143Z,32.35
2022-12-23T00:33:24.478Z,30.60
2022-12-23T00:35:52.033Z,29.42
2022-12-23T00:38:42.532Z,34.95
2022-12-23T00:41:33.239Z,37.03
2022-12-23T00:44:00.110Z,35.30
2022-12-23T00:46:27.381Z,37.67
2022-12-23T00:49:13.069Z,36.67
2022-12-23T00:51:39.893Z,35.97
2022-12-23T00:54:07.324Z,37.55
2022-12-23T00:56:34.364Z,36.97
2022-12-23T00:59:01.216Z,37.28
2022-12-23T01:01:46.971Z,34.25
2022-12-23T01:04:33.711Z,32.90
2022-12-23T01:07:01.205Z,34.95
2022-12-23T01:09:28.005Z,34.67
2022-12-23T01:11:55.952Z,32.88
2022-12-23T01:14:23.504Z,34.78
2022-12-23T01:16:50.409Z,35.88
2022-12-23T01:19:17.456Z,33.45
2022-12-23T01:21:44.266Z,29.98
2022-12-23T01:24:11.183Z,35.78
2022-12-23T01:26:37.947Z,37.40
2022-12-23T01:29:04.903Z,35.42
2022-12-23T01:31:31.971Z,33.97
2022-12-23T01:33:58.811Z,35.70
2022-12-23T01:36:25.893Z,38.10
2022-12-23T01:38:52.830Z,39.80
2022-12-23T01:41:41.764Z,33.03
2022-12-23T01:44:45.927Z,39.38
2022-12-23T01:47:33.459Z,34.97
2022-12-23T01:50:30.537Z,36.85
2022-12-23T01:53:08.612Z,38.88
2022-12-23T01:55:47.271Z,43.65
2022-12-23T01:58:19.460Z,41.00
2022-12-23T02:01:05.251Z,44.50
2022-12-23T02:03:44.729Z,43.60
2022-12-23T02:06:35.627Z,42.55
2022-12-23T02:09:17.675Z,40.47
2022-12-23T02:11:50.142Z,34.67
2022-12-23T02:14:45.067Z,34.17
2022-12-23T02:17:47.377Z,32.78
2022-12-23T02:20:51.936Z,28.42
2022-12-23T02:23:57.429Z,23.67
2022-12-23T02:26:54.379Z,20.77
2022-12-23T02:29:58.898Z,19.10
2022-12-23T02:32:41.530Z,19.25
2022-12-23T02:35:27.383Z,17.88
2022-12-23T02:38:21.633Z,18.20
2022-12-23T02:41:23.538Z,21.23
2022-12-23T02:44:17.090Z,19.35
2022-12-23T02:46:49.408Z,20.98
2022-12-23T02:49:23.905Z,21.77
2022-12-23T02:52:01.748Z,24.52
2022-12-23T02:54:36.129Z,22.55
2022-12-23T02:57:05.346Z,24.33
2022-12-23T02:59:41.666Z,27.95
2022-12-23T03:02:08.720Z,23.23
2022-12-23T03:04:38.324Z,21.30
2022-12-23T03:07:08.115Z,26.65
2022-12-23T03:09:59.506Z,22.52
2022-12-23T03:12:44.272Z,23.90
2022-12-23T03:15:16.987Z,20.08
2022-12-23T03:18:14.494Z,26.13
2022-12-23T03:20:46.656Z,20.25
2022-12-23T03:23:59.378Z,21.98
2022-12-23T03:26:38.609Z,23.02
2022-12-23T03:29:15.395Z,20.90
2022-12-23T03:31:44.306Z,22.67
2022-12-23T03:34:15.372Z,20.13
2022-12-23T03:36:47.359Z,17.88
2022-12-23T03:39:18.663Z,18.80
2022-12-23T03:41:52.696Z,17.33
2022-12-23T03:44:26.469Z,12.52
2022-12-23T03:47:04.155Z,12.98
2022-12-23T03:49:43.813Z,11.32
2022-12-23T03:52:21.151Z,9.90
2022-12-23T03:54:53.254Z,10.55
2022-12-23T03:57:22.402Z,8.13
2022-12-23T03:59:53.397Z,9.15
2022-12-23T04:02:31.083Z,8.00
2022-12-23T04:05:01.021Z,7.53
2022-12-23T04:07:30.452Z,8.77
2022-12-23T04:10:00.624Z,7.30
2022-12-23T04:12:31.808Z,8.05
2022-12-23T04:14:58.883Z,6.97
2022-12-23T04:17:25.621Z,9.35
2022-12-23T04:19:53.041Z,9.98
2022-12-23T04:22:19.778Z,11.30
2022-12-23T04:24:46.548Z,10.27
2022-12-23T04:27:14.779Z,13.60
2022-12-23T04:29:41.693Z,12.65
2022-12-23T04:32:08.494Z,18.10
2022-12-23T04:34:35.357Z,17.75
2022-12-23T04:37:02.239Z,17.95
2022-12-23T04:39:29.010Z,16.60
2022-12-23T04:41:55.765Z,19.35
2022-12-23T04:44:22.528Z,19.70
2022-12-23T04:46:49.414Z,20.58
2022-12-23T04:49:16.384Z,20.38
2022-12-23T04:51:43.143Z,22.73
2022-12-23T04:54:09.909Z,21.63
2022-12-23T04:56:36.722Z,24.60
2022-12-23T04:59:04.328Z,27.25
2022-12-23T05:01:31.299Z,29.60
2022-12-23T05:03:58.339Z,26.73
2022-12-23T05:06:25.279Z,31.33
2022-12-23T05:08:52.162Z,29.33
2022-12-23T05:11:18.964Z,28.33
2022-12-23T05:13:45.743Z,34.30
2022-12-23T05:16:12.637Z,34.25
2022-12-23T05:18:39.457Z,35.05
2022-12-23T05:21:06.251Z,34.13
2022-12-23T05:23:33.402Z,33.25
2022-12-23T05:26:00.284Z,36.08
2022-12-23T05:28:27.269Z,37.60
2022-12-23T05:31:04.398Z,39.42
2022-12-23T05:33:31.403Z,39.35
2022-12-23T05:35:58.642Z,39.83
2022-12-23T05:38:25.648Z,41.60
2022-12-23T05:40:54.194Z,38.08
2022-12-23T05:43:21.473Z,41.08
2022-12-23T05:45:49.153Z,37.80
2022-12-23T05:48:15.996Z,43.90
2022-12-23T05:50:43.033Z,42.58
2022-12-23T05:53:09.844Z,42.50
2022-12-23T05:55:36.984Z,39.97
2022-12-23T05:58:03.833Z,40.60
2022-12-23T06:00:30.613Z,41.08
2022-12-23T06:02:57.632Z,43.80
2022-12-23T06:05:24.490Z,47.38
2022-12-23T06:07:51.332Z,43.53
2022-12-23T06:10:18.514Z,41.78
2022-12-23T06:12:45.456Z,45.75
2022-12-23T06:15:12.614Z,45.40
2022-12-23T06:17:39.480Z,47.92
2022-12-23T06:20:16.158Z,52.17
2022-12-23T06:22:46.668Z,52.00
2022-12-23T06:25:13.516Z,52.75
2022-12-23T06:27:40.380Z,48.70
2022-12-23T06:30:08.116Z,46.40
2022-12-23T06:32:38.678Z,48.50
2022-12-23T06:35:07.022Z,56.97
2022-12-23T06:37:33.856Z,49.42
2022-12-23T06:40:00.680Z,47.83
2022-12-23T06:42:27.443Z,49.17
2022-12-23T06:44:54.217Z,51.95
2022-12-23T06:47:21.038Z,57.65
2022-12-23T06:49:47.757Z,51.05
2022-12-23T06:52:14.536Z,53.80
2022-12-23T06:54:41.311Z,54.83
2022-12-23T06:57:08.144Z,60.55
2022-12-23T06:59:34.884Z,59.72
2022-12-23T07:02:01.696Z,51.60
2022-12-23T07:04:31.666Z,50.33
2022-12-23T07:06:58.838Z,53.92
2022-12-23T07:09:26.204Z,50.42
2022-12-23T07:11:53.020Z,47.30
2022-12-23T07:14:19.768Z,49.47
2022-12-23T07:16:49.456Z,42.08
2022-12-23T07:19:16.271Z,46.72
2022-12-23T07:21:45.676Z,46.78
2022-12-23T07:24:12.494Z,47.25
2022-12-23T07:26:39.416Z,41.88
2022-12-23T07:29:06.285Z,52.72
2022-12-23T07:31:33.169Z,53.42
2022-12-23T07:34:00.198Z,57.15
2022-12-23T07:36:27.004Z,51.13
2022-12-23T07:38:56.877Z,55.15
2022-12-23T07:41:23.743Z,53.90
2022-12-23T07:43:50.521Z,49.33
2022-12-23T07:46:17.415Z,50.17
2022-12-23T07:48:44.490Z,47.38
2022-12-23T07:51:11.354Z,43.05
2022-12-23T07:53:38.418Z,43.50
2022-12-23T07:56:05.640Z,44.97
2022-12-23T07:58:32.628Z,45.97
2022-12-23T08:01:04.279Z,51.22
2022-12-23T08:03:40.596Z,40.47
2022-12-23T08:06:12.696Z,39.03
2022-12-23T08:08:41.222Z,45.83
2022-12-23T08:11:09.927Z,53.97
2022-12-23T08:13:38.987Z,50.97
2022-12-23T08:16:06.940Z,51.97
2022-12-23T08:18:36.562Z,55.65
2022-12-23T08:21:12.926Z,61.42
2022-12-23T08:23:39.854Z,55.92
2022-12-23T08:26:21.063Z,51.35
2022-12-23T08:28:49.507Z,55.72
2022-12-23T08:31:25.422Z,59.55
2022-12-23T08:33:55.689Z,60.72
2022-12-23T08:36:26.666Z,61.65
2022-12-23T08:38:55.318Z,63.80
2022-12-23T08:41:28.281Z,76.00
2022-12-23T08:43:56.188Z,66.32
2022-12-23T08:46:23.590Z,64.97
2022-12-23T08:48:50.877Z,58.75
2022-12-23T08:51:19.678Z,55.95
2022-12-23T08:53:47.746Z,58.35
2022-12-23T08:56:20.707Z,65.20
2022-12-23T08:58:49.497Z,62.08
2022-12-23T09:01:17.923Z,64.70
2022-12-23T09:03:45.720Z,64.07
2022-12-23T09:06:14.404Z,63.08
2022-12-23T09:08:41.902Z,63.88
2022-12-23T09:11:13.758Z,61.85
2022-12-23T09:13:40.695Z,57.28
2022-12-23T09:16:08.206Z,66.25
2022-12-23T09:18:36.208Z,66.43
2022-12-23T09:21:08.326Z,52.65
2022-12-23T09:23:35.392Z,60.17
2022-12-23T09:26:04.217Z,59.38
2022-12-23T09:28:31.083Z,53.95
2022-12-23T09:30:58.048Z,51.00
2022-12-23T09:33:24.921Z,56.83
2022-12-23T09:35:51.910Z,57.13
2022-12-23T09:38:18.740Z,57.28
2022-12-23T09:40:45.804Z,60.22
2022-12-23T09:43:28.846Z,63.83
2022-12-23T09:46:16.766Z,62.92
2022-12-23T09:49:02.190Z,63.13
2022-12-23T09:51:30.632Z,67.55
2022-12-23T09:54:07.908Z,66.53
2022-12-23T09:57:02.513Z,63.97
2022-12-23T09:59:35.212Z,70.07
2022-12-23T10:02:34.718Z,68.97
2022-12-23T10:05:13.524Z,69.13
2022-12-23T10:07:53.806Z,66.88
2022-12-23T10:10:47.112Z,63.58
2022-12-23T10:13:39.260Z,68.47
2022-12-23T10:16:16.944Z,65.05
2022-12-23T10:19:04.530Z,66.60
2022-12-23T10:21:45.333Z,56.83
2022-12-23T10:24:34.216Z,53.80
2022-12-23T10:27:22.391Z,51.38
2022-12-23T10:29:50.097Z,48.90
2022-12-23T10:32:55.534Z,49.72
2022-12-23T10:35:54.573Z,41.60
2022-12-23T10:38:31.878Z,44.50
2022-12-23T10:41:22.958Z,49.15
2022-12-23T10:44:24.960Z,48.47
2022-12-23T10:47:10.613Z,43.28
2022-12-23T10:49:37.441Z,46.22
2022-12-23T10:52:14.656Z,44.95
2022-12-23T10:54:44.179Z,46.17
2022-12-23T10:57:13.473Z,51.08
2022-12-23T10:59:40.257Z,43.92
2022-12-23T11:02:28.821Z,48.35
2022-12-23T11:04:55.725Z,41.85
2022-12-23T11:07:44.792Z,42.75
2022-12-23T11:10:23.566Z,36.85
2022-12-23T11:12:53.074Z,38.33
2022-12-23T11:15:26.202Z,37.90
2022-12-23T11:18:00.421Z,33.25
2022-12-23T11:20:27.506Z,25.90
2022-12-23T11:22:56.024Z,34.85
2022-12-23T11:25:30.439Z,35.35
2022-12-23T11:28:11.723Z,38.45
2022-12-23T11:30:55.822Z,35.75
2022-12-23T11:33:32.373Z,30.80
2022-12-23T11:36:06.462Z,34.72
2022-12-23T11:38:35.789Z,24.90
2022-12-23T11:41:05.633Z,32.00
2022-12-23T11:43:33.701Z,33.20
2022-12-23T11:46:25.758Z,40.35
2022-12-23T11:49:14.644Z,38.67
2022-12-23T11:51:42.825Z,45.65
2022-12-23T11:54:19.921Z,33.50
2022-12-23T11:56:51.613Z,42.17
2022-12-23T11:59:38.489Z,34.72
2022-12-23T12:02:30.835Z,38.92
2022-12-23T12:05:01.269Z,38.45
2022-12-23T12:07:29.259Z,59.00
2022-12-23T12:09:59.984Z,45.63
2022-12-23T12:12:28.873Z,41.92
2022-12-23T12:14:59.323Z,35.33
2022-12-23T12:17:46.771Z,31.17
2022-12-23T12:20:41.644Z,30.98
2022-12-23T12:23:27.323Z,31.67
2022-12-23T12:25:59.894Z,30.25
2022-12-23T12:28:37.261Z,31.50
2022-12-23T12:31:23.272Z,35.67
2022-12-23T12:34:05.781Z,26.60
2022-12-23T12:36:32.673Z,27.08
2022-12-23T12:39:00.257Z,31.90
2022-12-23T12:41:37.232Z,26.60
2022-12-23T12:44:13.712Z,27.13
2022-12-23T12:46:49.757Z,31.23
2022-12-23T12:49:34.156Z,27.48
2022-12-23T12:52:12.523Z,32.45
2022-12-23T12:54:45.975Z,28.83
2022-12-23T12:57:18.831Z,29.60
2022-12-23T12:59:51.567Z,33.92
2022-12-23T13:02:31.290Z,32.70
2022-12-23T13:05:26.025Z,34.22
2022-12-23T13:08:11.482Z,38.15
2022-12-23T13:13:07.949Z,37.88
2022-12-23T13:15:44.223Z,39.47
2022-12-23T13:18:33.111Z,34.42
2022-12-23T13:21:10.450Z,34.22
2022-12-23T13:23:53.482Z,38.42
2022-12-23T13:26:44.839Z,37.20
2022-12-23T13:29:29.982Z,35.38
2022-12-23T13:32:08.356Z,40.28
2022-12-23T13:34:51.207Z,36.90
2022-12-23T13:37:52.568Z,41.38
2022-12-23T13:40:42.171Z,42.45
2022-12-23T13:43:18.613Z,39.42
2022-12-23T13:45:47.485Z,37.85
2022-12-23T13:48:43.764Z,38.00
2022-12-23T13:51:34.795Z,47.15
2022-12-23T13:54:35.147Z,51.60
2022-12-23T13:57:25.892Z,49.35
2022-12-23T14:00:06.010Z,47.03
2022-12-23T14:02:36.555Z,70.90
2022-12-23T14:05:07.544Z,47.83
2022-12-23T14:07:37.464Z,48.38
2022-12-23T14:10:19.062Z,47.03
2022-12-23T14:12:47.188Z,43.92
2022-12-23T14:15:26.097Z,41.22
2022-12-23T14:18:17.565Z,40.78
2022-12-23T14:20:44.409Z,41.88
2022-12-23T14:23:47.386Z,50.90
2022-12-23T14:26:30.601Z,48.03
2022-12-23T14:29:19.218Z,48.05
2022-12-23T14:31:54.114Z,40.42
2022-12-23T14:34:22.529Z,42.08
2022-12-23T14:37:20.404Z,37.63
2022-12-23T14:39:50.554Z,40.95
2022-12-23T14:42:40.841Z,35.25
2022-12-23T14:45:38.140Z,38.83
2022-12-23T14:48:34.102Z,43.85
2022-12-23T14:51:33.144Z,38.28
2022-12-23T14:54:00.160Z,39.38
2022-12-23T14:56:30.100Z,47.70
2022-12-23T14:59:07.664Z,40.83
2022-12-23T15:01:43.439Z,36.15
2022-12-23T15:04:19.600Z,32.60
2022-12-23T15:06:55.156Z,41.15
2022-12-23T15:09:29.177Z,39.40
2022-12-23T15:11:59.871Z,40.45
2022-12-23T15:14:41.371Z,33.45
2022-12-23T15:17:25.356Z,42.13
2022-12-23T15:19:53.032Z,40.13
2022-12-23T15:22:26.803Z,40.72
2022-12-23T15:24:59.070Z,38.50
2022-12-23T15:27:29.400Z,38.33
2022-12-23T15:29:57.658Z,34.65
2022-12-23T15:32:25.751Z,40.75
2022-12-23T15:34:59.023Z,42.33
2022-12-23T15:37:29.400Z,35.38
2022-12-23T15:40:06.168Z,39.65
2022-12-23T15:42:38.724Z,40.20
2022-12-23T15:45:40.185Z,41.72
2022-12-23T15:48:22.513Z,76.65
2022-12-23T15:50:52.297Z,49.55
2022-12-23T15:53:20.608Z,44.47
2022-12-23T15:55:49.242Z,40.25
2022-12-23T15:58:21.031Z,46.35
2022-12-23T16:00:57.663Z,46.65
2022-12-23T16:03:37.638Z,47.20
2022-12-23T16:06:07.643Z,47.70
2022-12-23T16:08:34.835Z,50.95
2022-12-23T16:11:13.341Z,55.38
2022-12-23T16:13:46.673Z,59.85
2022-12-23T16:16:33.451Z,67.90
2022-12-23T16:19:00.414Z,59.03
2022-12-23T16:21:36.513Z,47.28
2022-12-23T16:24:08.594Z,83.03
2022-12-23T16:26:42.949Z,67.85
2022-12-23T16:29:11.628Z,45.78
2022-12-23T16:31:42.779Z,65.30
2022-12-23T16:34:13.202Z,33.70
2022-12-23T16:36:40.157Z,50.05
2022-12-23T16:39:06.956Z,91.63
2022-12-23T16:41:34.323Z,75.50
2022-12-23T16:44:01.960Z,62.13
2022-12-23T16:46:34.193Z,73.80
2022-12-23T16:49:05.258Z,59.35
2022-12-23T16:51:34.416Z,54.53
2022-12-23T16:54:01.937Z,66.03
2022-12-23T16:56:35.728Z,80.60
2022-12-23T16:59:02.928Z,73.70
2022-12-23T17:01:39.820Z,58.72
2022-12-23T17:04:07.855Z,74.95
2022-12-23T17:06:36.066Z,68.90
2022-12-23T17:09:04.574Z,57.85
2022-12-23T17:11:41.624Z,65.22
2022-12-23T17:14:18.159Z,62.67
2022-12-23T17:16:46.098Z,49.58
2022-12-23T17:19:13.243Z,50.45
2022-12-23T17:21:41.944Z,53.53
2022-12-23T17:24:14.071Z,53.80
2022-12-23T17:26:40.962Z,55.70
2022-12-23T17:29:10.077Z,50.90
2022-12-23T17:31:37.136Z,59.53
2022-12-23T17:34:04.071Z,62.75
2022-12-23T17:36:30.868Z,46.97
2022-12-23T17:38:57.881Z,62.05
2022-12-23T17:41:29.792Z,48.17
2022-12-23T17:43:56.952Z,49.25
2022-12-23T17:46:24.685Z,49.15
2022-12-23T17:48:51.653Z,40.22
2022-12-23T17:51:20.900Z,44.63
2022-12-23T17:53:51.696Z,44.80
2022-12-23T17:56:24.701Z,42.85
2022-12-23T17:58:51.912Z,47.30
2022-12-23T18:01:27.695Z,40.58
2022-12-23T18:03:56.125Z,41.80
2022-12-23T18:06:24.998Z,47.40
2022-12-23T18:08:51.966Z,50.40
2022-12-23T18:11:27.671Z,38.63
2022-12-23T18:13:54.799Z,43.78
2022-12-23T18:16:21.965Z,42.00
2022-12-23T18:18:48.967Z,36.53
2022-12-23T18:21:27.234Z,42.03
2022-12-23T18:24:12.879Z,33.83
2022-12-23T18:26:39.897Z,47.15
2022-12-23T18:29:07.114Z,33.13
2022-12-23T18:31:34.061Z,34.88
2022-12-23T18:34:01.075Z,36.50
2022-12-23T18:36:31.245Z,42.63
2022-12-23T18:39:22.201Z,38.42
2022-12-23T18:41:49.117Z,43.15
2022-12-23T18:44:21.120Z,47.28
2022-12-23T18:46:49.345Z,43.65
2022-12-23T18:49:16.406Z,40.03
2022-12-23T18:51:46.146Z,39.10
2022-12-23T18:54:17.123Z,37.60
2022-12-23T18:56:44.514Z,40.22
2022-12-23T18:59:24.301Z,37.50
2022-12-23T19:01:56.571Z,37.47
2022-12-23T19:04:23.880Z,35.97
2022-12-23T19:06:50.757Z,57.70
2022-12-23T19:09:20.551Z,50.70
2022-12-23T19:11:49.887Z,38.08
2022-12-23T19:14:17.209Z,31.65
2022-12-23T19:16:50.852Z,36.28
2022-12-23T19:19:21.312Z,33.88
2022-12-23T19:21:48.771Z,36.17
2022-12-23T19:24:16.164Z,34.42
2022-12-23T19:26:44.021Z,34.95
2022-12-23T19:29:11.168Z,34.20
2022-12-23T19:31:38.442Z,33.28
2022-12-23T19:34:09.698Z,34.80
2022-12-23T19:36:41.629Z,37.67
2022-12-23T19:39:17.678Z,34.78
2022-12-23T19:41:45.674Z,33.55
2022-12-23T19:44:13.019Z,34.22
2022-12-23T19:46:39.999Z,35.00
2022-12-23T19:49:06.922Z,37.85
2022-12-23T19:51:34.037Z,32.05
2022-12-23T19:54:01.199Z,32.88
2022-12-23T19:56:30.223Z,33.25
2022-12-23T19:58:57.083Z,33.35
2022-12-23T20:01:25.974Z,33.08
2022-12-23T20:03:55.534Z,34.33
2022-12-23T20:06:29.421Z,33.15
2022-12-23T20:09:00.997Z,35.53
2022-12-23T20:11:30.881Z,34.10
2022-12-23T20:13:58.838Z,37.17
2022-12-23T20:16:26.801Z,32.25
2022-12-23T20:18:54.730Z,32.35
2022-12-23T20:21:21.925Z,56.13
2022-12-23T20:23:49.927Z,41.30
2022-12-23T20:26:18.738Z,42.60
2022-12-23T20:28:49.149Z,42.80
2022-12-23T20:31:22.691Z,37.72
2022-12-23T20:33:52.119Z,47.72
2022-12-23T20:36:22.251Z,37.17
2022-12-23T20:38:50.536Z,37.25
2022-12-23T20:41:19.590Z,39.30
2022-12-23T20:44:02.804Z,43.33
2022-12-23T20:46:34.338Z,41.00
2022-12-23T20:49:02.987Z,41.50
2022-12-23T20:51:29.817Z,36.08
2022-12-23T20:54:01.015Z,42.40
2022-12-23T20:56:30.363Z,39.45
2022-12-23T20:58:59.351Z,42.28
2022-12-23T21:01:32.990Z,63.00
2022-12-23T21:04:02.318Z,54.45
2022-12-23T21:06:30.763Z,59.13
2022-12-23T21:08:59.824Z,53.78
2022-12-23T21:11:36.179Z,49.08
2022-12-23T21:14:06.893Z,58.65
2022-12-23T21:16:36.101Z,58.03
2022-12-23T21:19:04.360Z,52.85
2022-12-23T21:21:32.114Z,57.72
2022-12-23T21:24:02.268Z,51.70
2022-12-23T21:26:30.842Z,55.03
2022-12-23T21:28:59.869Z,54.55
2022-12-23T21:31:29.063Z,70.60
2022-12-23T21:33:56.652Z,61.05
2022-12-23T21:36:26.550Z,62.65
2022-12-23T21:38:53.708Z,57.17
2022-12-23T21:41:24.816Z,73.97
2022-12-23T21:43:52.315Z,60.97
2022-12-23T21:46:21.950Z,65.82
2022-12-23T21:48:49.757Z,62.33
2022-12-23T21:51:36.659Z,52.25
2022-12-23T21:54:06.319Z,63.58
2022-12-23T21:56:33.247Z,60.15
2022-12-23T21:59:02.187Z,63.80
2022-12-23T22:01:30.355Z,51.83
2022-12-23T22:03:58.029Z,66.65
2022-12-23T22:06:37.509Z,68.25
2022-12-23T22:09:08.401Z,53.22
2022-12-23T22:11:36.761Z,56.05
2022-12-23T22:14:06.145Z,63.50
2022-12-23T22:16:34.184Z,82.05
2022-12-23T22:19:02.068Z,65.57
2022-12-23T22:21:31.242Z,46.13
2022-12-23T22:23:59.959Z,56.88
2022-12-23T22:26:29.926Z,53.33
2022-12-23T22:28:59.169Z,52.05
2022-12-23T22:31:45.021Z,49.28
2022-12-23T22:34:17.605Z,48.13
2022-12-23T22:36:45.163Z,53.28
2022-12-23T22:39:20.026Z,62.33
2022-12-23T22:41:47.860Z,58.35
2022-12-23T22:44:15.242Z,54.83
2022-12-23T22:46:42.731Z,63.47
2022-12-23T22:49:13.784Z,65.20
2022-12-23T22:51:41.376Z,61.80
2022-12-23T22:54:11.984Z,67.57
2022-12-23T22:56:38.873Z,73.05
2022-12-23T22:59:05.968Z,63.92
2022-12-23T23:01:35.900Z,62.97
2022-12-23T23:04:03.925Z,58.08
2022-12-23T23:06:37.893Z,60.50
2022-12-23T23:09:12.108Z,62.00
2022-12-23T23:11:39.646Z,80.40
2022-12-23T23:14:06.737Z,56.85
2022-12-23T23:16:33.882Z,53.55
2022-12-23T23:19:01.700Z,55.97
2022-12-23T23:21:28.689Z,56.70
2022-12-23T23:23:55.498Z,57.05
2022-12-23T23:26:26.901Z,55.92
2022-12-23T23:28:54.798Z,54.85
2022-12-23T23:34:09.195Z,47.72
2022-12-23T23:36:36.235Z,51.03
2022-12-23T23:39:03.119Z,36.08
2022-12-23T23:41:29.986Z,35.55
2022-12-23T23:43:56.857Z,37.97
2022-12-23T23:46:24.034Z,40.35
2022-12-23T23:48:50.909Z,47.30
2022-12-23T23:51:17.714Z,36.17
2022-12-23T23:53:44.535Z,38.00
2022-12-23T23:56:11.403Z,43.95
2022-12-23T23:58:38.454Z,38.40
